createdAt,value
2022-10-01T00:00:00.123Z,14.50
2022-10-01T00:03:42.585Z,14.50
2022-10-01T00:07:24.557Z,14.50
2022-10-01T00:11:12.572Z,14.40
2022-10-01T00:14:54.563Z,14.30
2022-10-01T00:18:41.659Z,14.20
2022-10-01T00:22:23.615Z,14.20
2022-10-01T00:26:35.424Z,14.10
2022-10-01T00:30:17.704Z,14.00
2022-10-01T00:34:00.758Z,13.90
2022-10-01T00:37:42.876Z,13.80
2022-10-01T00:41:26.711Z,13.70
2022-10-01T00:45:13.769Z,13.70
2022-10-01T00:49:01.558Z,13.70
2022-10-01T00:52:52.335Z,13.60
2022-10-01T00:56:34.531Z,13.50
2022-10-01T01:01:10.783Z,13.50
2022-10-01T01:05:49.267Z,13.50
2022-10-01T01:09:38.483Z,13.50
2022-10-01T01:13:27.578Z,13.50
2022-10-01T01:17:15.639Z,13.50
2022-10-01T01:21:11.519Z,13.50
2022-10-01T01:25:29.156Z,13.60
2022-10-01T01:29:22.294Z,13.70
2022-10-01T01:33:15.873Z,13.70
2022-10-01T01:37:12.147Z,13.80
2022-10-01T01:40:57.793Z,13.80
2022-10-01T01:44:44.165Z,13.70
2022-10-01T01:48:27.537Z,13.70
2022-10-01T01:52:16.048Z,13.70
2022-10-01T01:56:00.880Z,13.70
2022-10-01T01:59:42.986Z,13.70
2022-10-01T02:03:27.043Z,13.60
2022-10-01T02:07:30.649Z,13.50
2022-10-01T02:11:25.302Z,13.40
2022-10-01T02:15:27.930Z,13.40
2022-10-01T02:19:31.380Z,13.30
2022-10-01T02:23:19.332Z,13.30
2022-10-01T02:27:11.479Z,13.30
2022-10-01T02:30:56.092Z,13.30
2022-10-01T02:34:40.356Z,13.30
2022-10-01T02:38:24.273Z,13.30
2022-10-01T02:42:12.621Z,13.30
2022-10-01T02:46:00.015Z,13.30
2022-10-01T02:49:42.279Z,13.20
2022-10-01T02:53:42.473Z,13.20
2022-10-01T02:57:28.060Z,13.10
2022-10-01T03:01:10.052Z,13.00
2022-10-01T03:04:52.180Z,13.10
2022-10-01T03:08:34.125Z,13.00
2022-10-01T03:12:17.313Z,13.00
2022-10-01T03:15:59.313Z,13.10
2022-10-01T03:19:41.654Z,13.00
2022-10-01T03:23:23.635Z,13.10
2022-10-01T03:27:05.851Z,13.10
2022-10-01T03:30:47.808Z,13.10
2022-10-01T03:34:29.846Z,13.10
2022-10-01T03:38:13.887Z,13.00
2022-10-01T03:45:46.823Z,12.90
2022-10-01T03:49:29.244Z,12.90
2022-10-01T03:53:12.579Z,12.90
2022-10-01T03:56:54.534Z,12.80
2022-10-01T04:00:36.668Z,12.80
2022-10-01T04:04:18.644Z,12.80
2022-10-01T04:08:01.146Z,12.80
2022-10-01T04:11:43.232Z,12.80
2022-10-01T04:15:25.666Z,12.80
2022-10-01T04:19:07.676Z,12.80
2022-10-01T04:22:49.804Z,12.90
2022-10-01T04:26:31.877Z,12.80
2022-10-01T04:30:13.879Z,12.90
2022-10-01T04:33:57.555Z,13.00
2022-10-01T04:37:39.896Z,13.00
2022-10-01T04:41:22.037Z,13.00
2022-10-01T04:45:04.396Z,13.00
2022-10-01T04:48:49.071Z,13.00
2022-10-01T04:52:31.067Z,12.90
2022-10-01T04:56:13.020Z,12.90
2022-10-01T04:59:54.974Z,12.80
2022-10-01T05:03:36.889Z,12.70
2022-10-01T05:07:20.099Z,12.70
2022-10-01T05:11:03.230Z,12.70
2022-10-01T05:14:45.240Z,12.70
2022-10-01T05:18:27.239Z,12.60
2022-10-01T05:22:09.174Z,12.60
2022-10-01T05:25:51.160Z,12.60
2022-10-01T05:29:33.523Z,12.60
2022-10-01T05:33:15.525Z,12.60
2022-10-01T05:36:57.579Z,12.60
2022-10-01T05:40:39.529Z,12.60
2022-10-01T05:44:22.729Z,12.70
2022-10-01T05:48:06.520Z,12.70
2022-10-01T05:51:49.176Z,12.80
2022-10-01T05:55:34.917Z,12.80
2022-10-01T05:59:17.369Z,12.80
2022-10-01T06:03:01.604Z,12.80
2022-10-01T06:06:43.755Z,12.90
2022-10-01T06:10:26.024Z,12.90
2022-10-01T06:14:09.078Z,12.90
2022-10-01T06:17:51.012Z,12.90
2022-10-01T06:21:33.304Z,13.00
2022-10-01T06:25:15.800Z,13.00
2022-10-01T06:28:58.056Z,13.00
2022-10-01T06:32:40.012Z,13.00
2022-10-01T06:36:22.021Z,13.00
2022-10-01T06:40:04.891Z,13.10
2022-10-01T06:43:50.239Z,13.20
2022-10-01T06:47:32.261Z,13.20
2022-10-01T06:51:14.357Z,13.20
2022-10-01T06:54:56.515Z,13.20
2022-10-01T06:58:38.665Z,13.30
2022-10-01T07:02:25.173Z,13.50
2022-10-01T07:06:09.149Z,14.10
2022-10-01T07:09:51.084Z,15.10
2022-10-01T07:13:33.082Z,15.90
2022-10-01T07:17:15.692Z,15.90
2022-10-01T07:20:58.384Z,15.60
2022-10-01T07:24:40.383Z,15.50
2022-10-01T07:28:25.771Z,15.40
2022-10-01T07:32:10.550Z,15.30
2022-10-01T07:35:52.699Z,15.30
2022-10-01T07:39:35.256Z,15.30
2022-10-01T07:43:17.260Z,15.40
2022-10-01T07:46:59.710Z,15.40
2022-10-01T07:50:45.408Z,15.50
2022-10-01T07:54:27.412Z,15.50
2022-10-01T07:58:11.224Z,15.60
2022-10-01T08:01:54.301Z,15.70
2022-10-01T08:05:36.677Z,15.80
2022-10-01T08:09:18.930Z,15.90
2022-10-01T08:13:14.635Z,16.00
2022-10-01T08:16:57.204Z,16.00
2022-10-01T08:20:40.064Z,15.90
2022-10-01T08:24:22.043Z,15.80
2022-10-01T08:28:09.235Z,15.70
2022-10-01T08:31:51.367Z,15.70
2022-10-01T08:35:33.552Z,15.80
2022-10-01T08:39:16.308Z,16.00
2022-10-01T08:43:06.439Z,16.30
2022-10-01T08:46:50.397Z,16.50
2022-10-01T08:50:39.537Z,16.70
2022-10-01T08:54:21.927Z,16.80
2022-10-01T08:58:06.896Z,17.10
2022-10-01T09:01:49.274Z,17.30
2022-10-01T09:05:57.977Z,17.50
2022-10-01T09:09:57.621Z,17.30
2022-10-01T09:14:08.594Z,17.30
2022-10-01T09:18:15.938Z,17.50
2022-10-01T09:22:02.274Z,17.80
2022-10-01T09:25:47.941Z,18.20
2022-10-01T09:30:01.526Z,18.40
2022-10-01T09:34:09.274Z,18.50
2022-10-01T09:38:18.769Z,18.40
2022-10-01T09:42:01.202Z,18.20
2022-10-01T09:45:43.265Z,18.20
2022-10-01T09:49:44.151Z,18.20
2022-10-01T09:53:34.977Z,18.20
2022-10-01T09:57:26.631Z,18.30
2022-10-01T10:01:20.831Z,18.40
2022-10-01T10:05:20.247Z,18.50
2022-10-01T10:09:02.808Z,18.60
2022-10-01T10:12:46.086Z,18.80
2022-10-01T10:16:30.564Z,18.90
2022-10-01T10:20:23.967Z,19.00
2022-10-01T10:24:19.937Z,19.10
2022-10-01T10:28:02.488Z,19.20
2022-10-01T10:31:46.473Z,19.30
2022-10-01T10:35:29.090Z,19.30
2022-10-01T10:39:22.118Z,19.20
2022-10-01T10:43:04.503Z,19.10
2022-10-01T10:46:47.196Z,19.50
2022-10-01T10:50:30.067Z,20.90
2022-10-01T10:54:41.350Z,23.50
2022-10-01T10:58:27.224Z,25.90
2022-10-01T11:02:18.542Z,27.70
2022-10-01T11:06:11.459Z,28.80
2022-10-01T11:10:00.721Z,29.60
2022-10-01T11:13:51.218Z,29.00
2022-10-01T11:17:57.649Z,27.50
2022-10-01T11:22:11.239Z,26.20
2022-10-01T11:26:16.716Z,24.90
2022-10-01T11:30:05.751Z,24.80
2022-10-01T11:34:50.922Z,26.30
2022-10-01T11:38:50.603Z,27.80
2022-10-01T11:42:36.434Z,28.60
2022-10-01T11:46:33.134Z,27.50
2022-10-01T11:50:22.174Z,26.50
2022-10-01T11:54:10.713Z,25.00
2022-10-01T11:58:17.417Z,24.00
2022-10-01T12:02:22.378Z,24.80
2022-10-01T12:06:09.523Z,26.70
2022-10-01T12:10:14.356Z,27.60
2022-10-01T12:14:05.499Z,27.60
2022-10-01T12:18:06.573Z,27.20
2022-10-01T12:22:00.696Z,27.30
2022-10-01T12:26:02.600Z,27.90
2022-10-01T12:29:50.847Z,28.00
2022-10-01T12:34:16.384Z,28.30
2022-10-01T12:38:22.716Z,27.60
2022-10-01T12:42:07.575Z,26.40
2022-10-01T12:46:39.692Z,25.80
2022-10-01T12:50:30.011Z,26.00
2022-10-01T12:54:14.827Z,26.20
2022-10-01T12:58:19.714Z,26.70
2022-10-01T13:02:20.183Z,26.50
2022-10-01T13:06:15.062Z,25.50
2022-10-01T13:10:00.367Z,24.70
2022-10-01T13:13:43.229Z,24.30
2022-10-01T13:17:35.962Z,24.10
2022-10-01T13:21:59.886Z,23.70
2022-10-01T13:26:09.389Z,23.30
2022-10-01T13:29:59.605Z,23.00
2022-10-01T13:33:42.118Z,22.80
2022-10-01T13:37:30.129Z,22.60
2022-10-01T13:41:30.187Z,22.30
2022-10-01T13:45:28.535Z,22.00
2022-10-01T13:49:30.408Z,21.80
2022-10-01T13:53:20.818Z,21.70
2022-10-01T13:57:10.488Z,21.60
2022-10-01T14:00:55.481Z,21.50
2022-10-01T14:04:42.159Z,21.60
2022-10-01T14:08:38.171Z,21.60
2022-10-01T14:12:53.500Z,21.80
2022-10-01T14:16:42.889Z,21.70
2022-10-01T14:20:30.707Z,21.70
2022-10-01T14:24:46.944Z,21.70
2022-10-01T14:28:49.725Z,21.20
2022-10-01T14:33:03.236Z,20.90
2022-10-01T14:36:49.454Z,20.80
2022-10-01T14:40:43.210Z,20.70
2022-10-01T14:44:29.745Z,20.90
2022-10-01T14:48:11.890Z,20.90
2022-10-01T14:52:27.990Z,21.10
2022-10-01T14:56:13.619Z,21.00
2022-10-01T14:59:57.981Z,20.90
2022-10-01T15:03:46.135Z,20.70
2022-10-01T15:07:33.469Z,20.70
2022-10-01T15:11:21.511Z,20.50
2022-10-01T15:15:03.736Z,20.30
2022-10-01T15:18:53.645Z,20.10
2022-10-01T15:22:35.755Z,20.10
2022-10-01T15:26:23.859Z,20.00
2022-10-01T15:30:13.299Z,19.90
2022-10-01T15:33:55.544Z,19.70
2022-10-01T15:37:38.418Z,19.70
2022-10-01T15:45:07.751Z,19.60
2022-10-01T15:49:20.228Z,19.50
2022-10-01T15:53:06.529Z,19.40
2022-10-01T15:56:49.425Z,19.30
2022-10-01T16:00:39.774Z,19.20
2022-10-01T16:04:21.883Z,19.10
2022-10-01T16:08:04.113Z,19.20
2022-10-01T16:12:17.939Z,19.20
2022-10-01T16:16:30.807Z,19.00
2022-10-01T16:20:15.787Z,18.90
2022-10-01T16:23:58.231Z,18.90
2022-10-01T16:27:47.829Z,18.80
2022-10-01T16:31:30.898Z,18.70
2022-10-01T16:35:16.332Z,18.60
2022-10-01T16:38:58.539Z,18.50
2022-10-01T16:42:41.526Z,18.50
2022-10-01T16:46:29.290Z,18.50
2022-10-01T16:50:16.878Z,18.50
2022-10-01T16:54:02.010Z,18.40
2022-10-01T16:57:44.296Z,18.40
2022-10-01T17:01:32.552Z,18.30
2022-10-01T17:05:28.564Z,18.30
2022-10-01T17:09:13.997Z,18.20
2022-10-01T17:12:57.007Z,18.00
2022-10-01T17:16:39.507Z,17.90
2022-10-01T17:20:23.127Z,17.80
2022-10-01T17:24:05.458Z,17.70
2022-10-01T17:27:48.352Z,17.50
2022-10-01T17:31:30.651Z,17.40
2022-10-01T17:35:15.055Z,17.20
2022-10-01T17:38:57.356Z,17.10
2022-10-01T17:42:39.882Z,17.00
2022-10-01T17:46:22.101Z,16.90
2022-10-01T17:50:17.760Z,16.70
2022-10-01T17:54:02.684Z,16.70
2022-10-01T17:57:44.646Z,16.50
2022-10-01T18:01:27.247Z,16.50
2022-10-01T18:05:12.732Z,16.40
2022-10-01T18:08:56.239Z,16.20
2022-10-01T18:12:40.750Z,16.20
2022-10-01T18:16:23.644Z,16.20
2022-10-01T18:20:07.667Z,16.10
2022-10-01T18:23:49.705Z,16.00
2022-10-01T18:27:31.830Z,16.00
2022-10-01T18:31:14.139Z,15.90
2022-10-01T18:34:59.161Z,15.90
2022-10-01T18:38:42.242Z,15.90
2022-10-01T18:42:51.764Z,15.90
2022-10-01T18:46:46.257Z,15.80
2022-10-01T18:50:48.960Z,15.80
2022-10-01T18:54:49.147Z,15.80
2022-10-01T18:58:40.315Z,15.70
2022-10-01T19:02:41.912Z,15.70
2022-10-01T19:06:33.392Z,15.70
2022-10-01T19:10:40.592Z,15.70
2022-10-01T19:14:28.888Z,15.70
2022-10-01T19:18:19.442Z,15.60
2022-10-01T19:22:05.863Z,15.60
2022-10-01T19:26:02.461Z,15.50
2022-10-01T19:30:01.245Z,15.50
2022-10-01T19:33:57.445Z,15.50
2022-10-01T19:37:47.468Z,15.50
2022-10-01T19:41:43.720Z,15.40
2022-10-01T19:45:33.934Z,15.40
2022-10-01T19:49:27.960Z,15.40
2022-10-01T20:11:58.725Z,15.40
2022-10-01T20:15:49.509Z,15.30
2022-10-01T20:19:42.333Z,15.30
2022-10-01T20:28:02.112Z,15.30
2022-10-01T20:32:13.405Z,15.30
2022-10-01T20:36:35.420Z,15.20
2022-10-01T20:40:26.307Z,15.20
2022-10-01T20:44:15.522Z,15.20
2022-10-01T20:48:05.310Z,15.20
2022-10-01T20:52:00.702Z,15.10
2022-10-01T20:55:52.845Z,15.10
2022-10-01T20:59:45.728Z,15.10
2022-10-01T21:03:32.286Z,15.00
2022-10-01T21:08:01.528Z,15.00
2022-10-01T21:12:05.172Z,15.00
2022-10-01T21:16:14.652Z,15.00
2022-10-01T21:20:21.171Z,15.00
2022-10-01T21:24:47.388Z,15.00
2022-10-01T21:28:56.427Z,15.00
2022-10-01T21:33:06.458Z,15.00
2022-10-01T21:37:27.182Z,15.00
2022-10-01T21:41:28.015Z,14.90
2022-10-01T21:45:33.147Z,14.90
2022-10-01T21:49:36.203Z,14.90
2022-10-01T21:53:29.217Z,14.90
2022-10-01T21:57:29.908Z,14.90
2022-10-01T22:01:27.248Z,14.90
2022-10-01T22:05:30.259Z,14.80
2022-10-01T22:09:28.269Z,14.80
2022-10-01T22:13:35.096Z,14.80
2022-10-01T22:17:22.027Z,14.70
2022-10-01T22:21:10.703Z,14.70
2022-10-01T22:24:54.936Z,14.70
2022-10-01T22:28:41.016Z,14.70
2022-10-01T22:32:26.110Z,14.60
2022-10-01T22:36:14.039Z,14.60
2022-10-01T22:40:03.246Z,14.50
2022-10-01T22:43:46.143Z,14.50
2022-10-01T22:47:57.344Z,14.50
2022-10-01T22:51:52.180Z,14.50
2022-10-01T22:55:51.816Z,14.40
2022-10-01T22:59:58.117Z,14.40
2022-10-01T23:03:57.917Z,14.40
2022-10-01T23:08:09.125Z,14.30
2022-10-01T23:12:15.093Z,14.30
2022-10-01T23:16:16.299Z,14.30
2022-10-01T23:20:22.965Z,14.30
2022-10-01T23:24:07.763Z,14.30
2022-10-01T23:28:10.916Z,14.30
2022-10-01T23:32:19.318Z,14.30
2022-10-01T23:36:07.275Z,14.30
2022-10-01T23:39:57.157Z,14.20
2022-10-01T23:43:48.610Z,14.20
2022-10-01T23:47:39.608Z,14.20
2022-10-01T23:51:33.529Z,14.20
2022-10-01T23:55:39.700Z,14.20
2022-10-01T23:59:31.910Z,14.20
